sensor_id;sensor_type;location;lat;lon;timestamp;P1;durP1;ratioP1;P2;durP2;ratioP2
50249;SDS011;36133;42.522;27.456;2023-05-18T00:01:10;36.72;;;16.25;;
50249;SDS011;36133;42.522;27.456;2023-05-18T00:03:36;42.00;;;16.58;;
50249;SDS011;36133;42.522;27.456;2023-05-18T00:06:05;31.77;;;14.38;;
50249;SDS011;36133;42.522;27.456;2023-05-18T00:08:35;31.75;;;12.73;;
50249;SDS011;36133;42.522;27.456;2023-05-18T00:11:02;24.40;;;11.43;;
50249;SDS011;36133;42.522;27.456;2023-05-18T00:13:28;33.78;;;11.20;;
50249;SDS011;36133;42.522;27.456;2023-05-18T00:15:54;22.63;;;9.85;;
50249;SDS011;36133;42.522;27.456;2023-05-18T00:18:20;24.10;;;10.75;;
50249;SDS011;36133;42.522;27.456;2023-05-18T00:20:51;23.05;;;9.60;;
50249;SDS011;36133;42.522;27.456;2023-05-18T00:23:26;24.08;;;9.90;;
50249;SDS011;36133;42.522;27.456;2023-05-18T00:25:57;23.73;;;9.43;;
50249;SDS011;36133;42.522;27.456;2023-05-18T00:28:23;21.65;;;9.10;;
50249;SDS011;36133;42.522;27.456;2023-05-18T00:30:49;28.73;;;9.20;;
50249;SDS011;36133;42.522;27.456;2023-05-18T00:33:15;31.60;;;9.10;;
50249;SDS011;36133;42.522;27.456;2023-05-18T00:35:40;23.45;;;8.85;;
50249;SDS011;36133;42.522;27.456;2023-05-18T00:38:05;28.83;;;7.70;;
50249;SDS011;36133;42.522;27.456;2023-05-18T00:40:31;24.67;;;8.27;;
50249;SDS011;36133;42.522;27.456;2023-05-18T00:42:57;23.38;;;8.68;;
50249;SDS011;36133;42.522;27.456;2023-05-18T00:45:22;18.50;;;7.75;;
50249;SDS011;36133;42.522;27.456;2023-05-18T00:47:48;21.23;;;7.70;;
50249;SDS011;36133;42.522;27.456;2023-05-18T00:50:13;24.35;;;9.38;;
50249;SDS011;36133;42.522;27.456;2023-05-18T00:52:39;24.05;;;7.32;;
50249;SDS011;36133;42.522;27.456;2023-05-18T00:55:05;24.20;;;7.90;;
50249;SDS011;36133;42.522;27.456;2023-05-18T00:57:32;21.83;;;7.75;;
50249;SDS011;36133;42.522;27.456;2023-05-18T00:59:58;14.80;;;6.82;;
50249;SDS011;36133;42.522;27.456;2023-05-18T01:02:24;24.63;;;7.93;;
50249;SDS011;36133;42.522;27.456;2023-05-18T01:04:54;24.33;;;7.38;;
50249;SDS011;36133;42.522;27.456;2023-05-18T01:07:20;24.40;;;8.18;;
50249;SDS011;36133;42.522;27.456;2023-05-18T01:09:50;29.48;;;8.75;;
50249;SDS011;36133;42.522;27.456;2023-05-18T01:12:20;24.25;;;7.85;;
50249;SDS011;36133;42.522;27.456;2023-05-18T01:25:32;22.05;;;6.18;;
50249;SDS011;36133;42.522;27.456;2023-05-18T01:28:06;18.55;;;6.00;;
50249;SDS011;36133;42.522;27.456;2023-05-18T01:30:39;51.38;;;7.05;;
50249;SDS011;36133;42.522;27.456;2023-05-18T01:33:06;16.17;;;5.70;;
50249;SDS011;36133;42.522;27.456;2023-05-18T01:35:33;20.10;;;5.07;;
50249;SDS011;36133;42.522;27.456;2023-05-18T01:38:00;17.55;;;6.13;;
50249;SDS011;36133;42.522;27.456;2023-05-18T01:40:26;17.42;;;5.38;;
50249;SDS011;36133;42.522;27.456;2023-05-18T01:43:00;23.60;;;5.80;;
50249;SDS011;36133;42.522;27.456;2023-05-18T01:45:30;21.77;;;5.38;;
50249;SDS011;36133;42.522;27.456;2023-05-18T01:47:57;19.08;;;5.18;;
50249;SDS011;36133;42.522;27.456;2023-05-18T01:50:28;20.17;;;5.38;;
50249;SDS011;36133;42.522;27.456;2023-05-18T01:53:05;11.32;;;5.18;;
50249;SDS011;36133;42.522;27.456;2023-05-18T01:55:48;13.82;;;5.63;;
50249;SDS011;36133;42.522;27.456;2023-05-18T01:58:16;20.67;;;6.03;;
50249;SDS011;36133;42.522;27.456;2023-05-18T02:00:45;16.60;;;4.90;;
50249;SDS011;36133;42.522;27.456;2023-05-18T02:03:11;17.75;;;5.05;;
50249;SDS011;36133;42.522;27.456;2023-05-18T02:05:37;14.35;;;5.25;;
50249;SDS011;36133;42.522;27.456;2023-05-18T02:08:03;12.07;;;5.25;;
50249;SDS011;36133;42.522;27.456;2023-05-18T02:10:28;20.40;;;5.40;;
50249;SDS011;36133;42.522;27.456;2023-05-18T02:12:54;21.00;;;4.55;;
50249;SDS011;36133;42.522;27.456;2023-05-18T02:15:20;12.10;;;5.05;;
50249;SDS011;36133;42.522;27.456;2023-05-18T02:17:46;17.52;;;5.13;;
50249;SDS011;36133;42.522;27.456;2023-05-18T02:20:11;25.77;;;4.85;;
50249;SDS011;36133;42.522;27.456;2023-05-18T02:22:37;22.00;;;5.55;;
50249;SDS011;36133;42.522;27.456;2023-05-18T02:25:03;21.73;;;5.40;;
50249;SDS011;36133;42.522;27.456;2023-05-18T02:27:32;15.90;;;4.53;;
50249;SDS011;36133;42.522;27.456;2023-05-18T02:29:59;12.25;;;4.30;;
50249;SDS011;36133;42.522;27.456;2023-05-18T02:32:24;12.63;;;5.05;;
50249;SDS011;36133;42.522;27.456;2023-05-18T02:34:50;13.38;;;4.43;;
50249;SDS011;36133;42.522;27.456;2023-05-18T02:37:17;17.20;;;5.32;;
50249;SDS011;36133;42.522;27.456;2023-05-18T02:39:42;17.42;;;4.80;;
50249;SDS011;36133;42.522;27.456;2023-05-18T02:42:08;16.83;;;5.60;;
50249;SDS011;36133;42.522;27.456;2023-05-18T02:44:33;15.65;;;5.93;;
50249;SDS011;36133;42.522;27.456;2023-05-18T02:46:59;24.92;;;6.30;;
50249;SDS011;36133;42.522;27.456;2023-05-18T02:49:24;21.40;;;6.70;;
50249;SDS011;36133;42.522;27.456;2023-05-18T02:51:53;17.40;;;7.28;;
50249;SDS011;36133;42.522;27.456;2023-05-18T02:54:18;15.60;;;7.60;;
50249;SDS011;36133;42.522;27.456;2023-05-18T02:56:44;27.65;;;8.13;;
50249;SDS011;36133;42.522;27.456;2023-05-18T02:59:10;23.48;;;7.63;;
50249;SDS011;36133;42.522;27.456;2023-05-18T03:01:36;14.73;;;7.28;;
50249;SDS011;36133;42.522;27.456;2023-05-18T03:04:04;18.15;;;8.20;;
50249;SDS011;36133;42.522;27.456;2023-05-18T03:06:30;20.52;;;9.60;;
50249;SDS011;36133;42.522;27.456;2023-05-18T03:08:56;18.52;;;9.65;;
50249;SDS011;36133;42.522;27.456;2023-05-18T03:11:22;22.40;;;9.25;;
50249;SDS011;36133;42.522;27.456;2023-05-18T03:13:48;21.17;;;9.32;;
50249;SDS011;36133;42.522;27.456;2023-05-18T03:16:14;20.27;;;9.35;;
50249;SDS011;36133;42.522;27.456;2023-05-18T03:18:39;15.18;;;8.50;;
50249;SDS011;36133;42.522;27.456;2023-05-18T03:21:05;21.73;;;9.00;;
50249;SDS011;36133;42.522;27.456;2023-05-18T03:23:32;22.38;;;9.75;;
50249;SDS011;36133;42.522;27.456;2023-05-18T03:25:57;21.88;;;9.23;;
50249;SDS011;36133;42.522;27.456;2023-05-18T03:28:26;18.25;;;9.80;;
50249;SDS011;36133;42.522;27.456;2023-05-18T03:30:52;25.35;;;10.13;;
50249;SDS011;36133;42.522;27.456;2023-05-18T03:33:17;19.20;;;9.32;;
50249;SDS011;36133;42.522;27.456;2023-05-18T03:35:43;28.92;;;10.32;;
50249;SDS011;36133;42.522;27.456;2023-05-18T03:38:09;21.13;;;10.35;;
50249;SDS011;36133;42.522;27.456;2023-05-18T03:40:34;22.15;;;11.60;;
50249;SDS011;36133;42.522;27.456;2023-05-18T03:43:00;28.63;;;12.00;;
50249;SDS011;36133;42.522;27.456;2023-05-18T03:45:26;21.42;;;10.55;;
50249;SDS011;36133;42.522;27.456;2023-05-18T03:47:51;20.85;;;11.25;;
50249;SDS011;36133;42.522;27.456;2023-05-18T03:50:17;28.25;;;10.93;;
50249;SDS011;36133;42.522;27.456;2023-05-18T03:52:43;24.58;;;12.27;;
50249;SDS011;36133;42.522;27.456;2023-05-18T03:55:09;29.92;;;12.27;;
50249;SDS011;36133;42.522;27.456;2023-05-18T03:57:35;27.08;;;13.93;;
50249;SDS011;36133;42.522;27.456;2023-05-18T04:00:01;26.80;;;13.77;;
50249;SDS011;36133;42.522;27.456;2023-05-18T04:02:31;22.85;;;12.80;;
50249;SDS011;36133;42.522;27.456;2023-05-18T04:04:56;30.67;;;13.38;;
50249;SDS011;36133;42.522;27.456;2023-05-18T04:07:22;26.77;;;13.15;;
50249;SDS011;36133;42.522;27.456;2023-05-18T04:09:48;22.60;;;11.18;;
50249;SDS011;36133;42.522;27.456;2023-05-18T04:12:15;20.08;;;10.15;;
50249;SDS011;36133;42.522;27.456;2023-05-18T04:14:41;20.40;;;9.55;;
50249;SDS011;36133;42.522;27.456;2023-05-18T04:17:07;25.88;;;10.65;;
50249;SDS011;36133;42.522;27.456;2023-05-18T04:19:34;22.05;;;8.98;;
50249;SDS011;36133;42.522;27.456;2023-05-18T04:22:01;18.60;;;8.23;;
50249;SDS011;36133;42.522;27.456;2023-05-18T04:24:33;20.20;;;8.05;;
50249;SDS011;36133;42.522;27.456;2023-05-18T04:26:59;16.50;;;7.30;;
50249;SDS011;36133;42.522;27.456;2023-05-18T04:29:26;14.57;;;6.93;;
50249;SDS011;36133;42.522;27.456;2023-05-18T04:31:53;20.02;;;7.25;;
50249;SDS011;36133;42.522;27.456;2023-05-18T04:34:25;18.70;;;6.25;;
50249;SDS011;36133;42.522;27.456;2023-05-18T04:36:51;19.40;;;6.68;;
50249;SDS011;36133;42.522;27.456;2023-05-18T04:39:22;14.77;;;7.18;;
50249;SDS011;36133;42.522;27.456;2023-05-18T04:41:49;17.70;;;7.75;;
50249;SDS011;36133;42.522;27.456;2023-05-18T04:44:22;17.08;;;7.93;;
50249;SDS011;36133;42.522;27.456;2023-05-18T04:46:51;14.18;;;6.38;;
50249;SDS011;36133;42.522;27.456;2023-05-18T04:49:17;15.52;;;6.30;;
50249;SDS011;36133;42.522;27.456;2023-05-18T04:51:49;10.57;;;5.10;;
50249;SDS011;36133;42.522;27.456;2023-05-18T04:54:20;16.60;;;5.72;;
50249;SDS011;36133;42.522;27.456;2023-05-18T04:56:47;20.85;;;5.88;;
50249;SDS011;36133;42.522;27.456;2023-05-18T04:59:13;17.08;;;5.47;;
50249;SDS011;36133;42.522;27.456;2023-05-18T05:01:39;16.25;;;5.50;;
50249;SDS011;36133;42.522;27.456;2023-05-18T05:04:04;11.55;;;5.03;;
50249;SDS011;36133;42.522;27.456;2023-05-18T05:06:30;14.45;;;5.05;;
50249;SDS011;36133;42.522;27.456;2023-05-18T05:08:56;13.80;;;5.00;;
50249;SDS011;36133;42.522;27.456;2023-05-18T05:11:21;11.35;;;4.28;;
50249;SDS011;36133;42.522;27.456;2023-05-18T05:13:47;11.65;;;4.18;;
50249;SDS011;36133;42.522;27.456;2023-05-18T05:16:12;15.85;;;5.00;;
50249;SDS011;36133;42.522;27.456;2023-05-18T05:18:39;10.95;;;4.90;;
50249;SDS011;36133;42.522;27.456;2023-05-18T05:21:05;12.73;;;4.93;;
50249;SDS011;36133;42.522;27.456;2023-05-18T05:23:30;14.60;;;4.50;;
50249;SDS011;36133;42.522;27.456;2023-05-18T05:25:56;15.95;;;4.53;;
50249;SDS011;36133;42.522;27.456;2023-05-18T05:28:21;7.72;;;3.92;;
50249;SDS011;36133;42.522;27.456;2023-05-18T05:30:47;9.48;;;3.70;;
50249;SDS011;36133;42.522;27.456;2023-05-18T05:33:12;7.90;;;3.90;;
50249;SDS011;36133;42.522;27.456;2023-05-18T05:35:38;10.45;;;3.90;;
50249;SDS011;36133;42.522;27.456;2023-05-18T05:38:04;16.13;;;5.00;;
50249;SDS011;36133;42.522;27.456;2023-05-18T05:40:30;12.55;;;3.83;;
50249;SDS011;36133;42.522;27.456;2023-05-18T05:42:56;15.15;;;5.30;;
50249;SDS011;36133;42.522;27.456;2023-05-18T05:45:21;12.23;;;4.18;;
50249;SDS011;36133;42.522;27.456;2023-05-18T05:47:47;9.35;;;4.65;;
50249;SDS011;36133;42.522;27.456;2023-05-18T05:50:14;12.73;;;4.50;;
50249;SDS011;36133;42.522;27.456;2023-05-18T05:52:39;10.63;;;4.47;;
50249;SDS011;36133;42.522;27.456;2023-05-18T05:55:05;11.98;;;4.38;;
50249;SDS011;36133;42.522;27.456;2023-05-18T05:57:31;14.20;;;4.75;;
50249;SDS011;36133;42.522;27.456;2023-05-18T05:59:56;12.05;;;4.85;;
50249;SDS011;36133;42.522;27.456;2023-05-18T06:02:22;12.77;;;5.40;;
50249;SDS011;36133;42.522;27.456;2023-05-18T06:04:47;13.48;;;4.63;;
50249;SDS011;36133;42.522;27.456;2023-05-18T06:07:13;13.65;;;4.80;;
50249;SDS011;36133;42.522;27.456;2023-05-18T06:09:39;14.98;;;6.68;;
50249;SDS011;36133;42.522;27.456;2023-05-18T06:12:05;11.05;;;4.10;;
50249;SDS011;36133;42.522;27.456;2023-05-18T06:14:31;12.25;;;4.15;;
50249;SDS011;36133;42.522;27.456;2023-05-18T06:16:56;7.22;;;4.05;;
50249;SDS011;36133;42.522;27.456;2023-05-18T06:19:22;9.65;;;3.92;;
50249;SDS011;36133;42.522;27.456;2023-05-18T06:21:47;13.82;;;4.40;;
50249;SDS011;36133;42.522;27.456;2023-05-18T06:24:13;11.40;;;3.95;;
50249;SDS011;36133;42.522;27.456;2023-05-18T06:26:38;6.47;;;3.15;;
50249;SDS011;36133;42.522;27.456;2023-05-18T06:29:04;12.45;;;3.67;;
50249;SDS011;36133;42.522;27.456;2023-05-18T06:31:30;10.02;;;3.60;;
50249;SDS011;36133;42.522;27.456;2023-05-18T06:33:56;11.38;;;3.78;;
50249;SDS011;36133;42.522;27.456;2023-05-18T06:36:21;13.15;;;3.88;;
50249;SDS011;36133;42.522;27.456;2023-05-18T06:38:47;11.18;;;4.10;;
50249;SDS011;36133;42.522;27.456;2023-05-18T06:41:12;10.45;;;4.03;;
50249;SDS011;36133;42.522;27.456;2023-05-18T06:43:38;10.00;;;3.92;;
50249;SDS011;36133;42.522;27.456;2023-05-18T06:46:07;9.85;;;4.15;;
50249;SDS011;36133;42.522;27.456;2023-05-18T06:48:32;10.13;;;3.90;;
50249;SDS011;36133;42.522;27.456;2023-05-18T06:50:58;11.10;;;3.33;;
50249;SDS011;36133;42.522;27.456;2023-05-18T06:53:24;13.43;;;4.50;;
50249;SDS011;36133;42.522;27.456;2023-05-18T06:55:50;8.90;;;3.97;;
50249;SDS011;36133;42.522;27.456;2023-05-18T06:58:16;19.00;;;4.95;;
50249;SDS011;36133;42.522;27.456;2023-05-18T07:00:41;8.88;;;3.50;;
50249;SDS011;36133;42.522;27.456;2023-05-18T07:03:07;9.80;;;4.68;;
50249;SDS011;36133;42.522;27.456;2023-05-18T07:05:35;9.45;;;3.47;;
50249;SDS011;36133;42.522;27.456;2023-05-18T07:08:01;10.73;;;3.78;;
50249;SDS011;36133;42.522;27.456;2023-05-18T07:13:10;9.00;;;3.65;;
50249;SDS011;36133;42.522;27.456;2023-05-18T07:15:44;15.25;;;3.65;;
50249;SDS011;36133;42.522;27.456;2023-05-18T07:18:12;10.32;;;4.40;;
50249;SDS011;36133;42.522;27.456;2023-05-18T07:20:38;18.38;;;4.88;;
50249;SDS011;36133;42.522;27.456;2023-05-18T07:23:04;13.15;;;4.07;;
50249;SDS011;36133;42.522;27.456;2023-05-18T07:25:29;13.02;;;4.18;;
50249;SDS011;36133;42.522;27.456;2023-05-18T07:27:55;11.43;;;4.05;;
50249;SDS011;36133;42.522;27.456;2023-05-18T07:30:21;16.55;;;4.00;;
50249;SDS011;36133;42.522;27.456;2023-05-18T07:32:47;11.05;;;3.70;;
50249;SDS011;36133;42.522;27.456;2023-05-18T07:35:16;14.77;;;4.15;;
50249;SDS011;36133;42.522;27.456;2023-05-18T07:37:43;11.45;;;4.10;;
50249;SDS011;36133;42.522;27.456;2023-05-18T07:40:11;15.43;;;4.25;;
50249;SDS011;36133;42.522;27.456;2023-05-18T07:42:38;13.77;;;4.03;;
50249;SDS011;36133;42.522;27.456;2023-05-18T07:45:05;17.58;;;4.15;;
50249;SDS011;36133;42.522;27.456;2023-05-18T07:47:34;17.67;;;3.90;;
50249;SDS011;36133;42.522;27.456;2023-05-18T07:50:00;10.60;;;4.43;;
50249;SDS011;36133;42.522;27.456;2023-05-18T07:52:32;12.60;;;3.92;;
50249;SDS011;36133;42.522;27.456;2023-05-18T07:55:01;12.88;;;3.97;;
50249;SDS011;36133;42.522;27.456;2023-05-18T07:57:27;19.10;;;4.70;;
50249;SDS011;36133;42.522;27.456;2023-05-18T07:59:54;10.13;;;4.15;;
50249;SDS011;36133;42.522;27.456;2023-05-18T08:02:20;10.73;;;4.68;;
50249;SDS011;36133;42.522;27.456;2023-05-18T08:05:10;14.88;;;4.53;;
50249;SDS011;36133;42.522;27.456;2023-05-18T08:07:36;15.25;;;4.22;;
50249;SDS011;36133;42.522;27.456;2023-05-18T08:10:05;11.88;;;4.25;;
50249;SDS011;36133;42.522;27.456;2023-05-18T08:12:40;16.88;;;4.30;;
50249;SDS011;36133;42.522;27.456;2023-05-18T08:15:06;8.45;;;3.42;;
50249;SDS011;36133;42.522;27.456;2023-05-18T08:17:32;12.77;;;3.92;;
50249;SDS011;36133;42.522;27.456;2023-05-18T08:20:01;16.88;;;3.63;;
50249;SDS011;36133;42.522;27.456;2023-05-18T08:22:29;12.55;;;4.25;;
50249;SDS011;36133;42.522;27.456;2023-05-18T08:24:57;10.77;;;4.00;;
50249;SDS011;36133;42.522;27.456;2023-05-18T08:27:25;8.98;;;4.45;;
50249;SDS011;36133;42.522;27.456;2023-05-18T08:29:50;10.05;;;3.80;;
50249;SDS011;36133;42.522;27.456;2023-05-18T08:32:16;10.27;;;4.28;;
50249;SDS011;36133;42.522;27.456;2023-05-18T08:34:42;17.00;;;4.28;;
50249;SDS011;36133;42.522;27.456;2023-05-18T08:37:08;15.50;;;4.60;;
50249;SDS011;36133;42.522;27.456;2023-05-18T08:39:33;10.73;;;4.15;;
50249;SDS011;36133;42.522;27.456;2023-05-18T08:42:06;18.83;;;5.07;;
50249;SDS011;36133;42.522;27.456;2023-05-18T08:44:44;11.63;;;4.45;;
50249;SDS011;36133;42.522;27.456;2023-05-18T08:47:15;12.80;;;4.40;;
50249;SDS011;36133;42.522;27.456;2023-05-18T08:49:50;8.60;;;3.92;;
50249;SDS011;36133;42.522;27.456;2023-05-18T08:52:21;15.02;;;4.50;;
50249;SDS011;36133;42.522;27.456;2023-05-18T08:54:52;16.98;;;3.88;;
50249;SDS011;36133;42.522;27.456;2023-05-18T08:57:19;9.65;;;4.22;;
50249;SDS011;36133;42.522;27.456;2023-05-18T08:59:47;7.70;;;4.10;;
50249;SDS011;36133;42.522;27.456;2023-05-18T09:02:19;7.50;;;3.63;;
50249;SDS011;36133;42.522;27.456;2023-05-18T09:04:47;7.45;;;3.85;;
50249;SDS011;36133;42.522;27.456;2023-05-18T09:07:16;9.23;;;3.60;;
50249;SDS011;36133;42.522;27.456;2023-05-18T09:09:42;10.68;;;4.20;;
50249;SDS011;36133;42.522;27.456;2023-05-18T09:12:09;8.80;;;4.05;;
50249;SDS011;36133;42.522;27.456;2023-05-18T09:14:39;7.93;;;3.53;;
50249;SDS011;36133;42.522;27.456;2023-05-18T09:17:09;14.13;;;3.65;;
50249;SDS011;36133;42.522;27.456;2023-05-18T09:19:37;6.80;;;3.25;;
50249;SDS011;36133;42.522;27.456;2023-05-18T09:22:03;11.77;;;3.42;;
50249;SDS011;36133;42.522;27.456;2023-05-18T09:24:30;10.30;;;3.58;;
50249;SDS011;36133;42.522;27.456;2023-05-18T09:26:55;12.23;;;5.15;;
50249;SDS011;36133;42.522;27.456;2023-05-18T09:29:24;10.35;;;4.72;;
50249;SDS011;36133;42.522;27.456;2023-05-18T09:31:53;15.13;;;5.25;;
50249;SDS011;36133;42.522;27.456;2023-05-18T09:34:23;15.38;;;4.88;;
50249;SDS011;36133;42.522;27.456;2023-05-18T09:36:49;15.88;;;4.88;;
50249;SDS011;36133;42.522;27.456;2023-05-18T09:39:33;12.95;;;5.20;;
50249;SDS011;36133;42.522;27.456;2023-05-18T09:42:01;19.38;;;5.70;;
50249;SDS011;36133;42.522;27.456;2023-05-18T09:44:30;10.52;;;4.70;;
50249;SDS011;36133;42.522;27.456;2023-05-18T09:47:07;7.13;;;4.45;;
50249;SDS011;36133;42.522;27.456;2023-05-18T09:49:36;11.35;;;5.25;;
50249;SDS011;36133;42.522;27.456;2023-05-18T09:52:05;7.35;;;4.65;;
50249;SDS011;36133;42.522;27.456;2023-05-18T09:54:40;8.05;;;5.05;;
50249;SDS011;36133;42.522;27.456;2023-05-18T09:57:08;11.02;;;6.13;;
50249;SDS011;36133;42.522;27.456;2023-05-18T09:59:34;13.13;;;6.20;;
50249;SDS011;36133;42.522;27.456;2023-05-18T10:02:01;11.52;;;5.85;;
50249;SDS011;36133;42.522;27.456;2023-05-18T10:07:11;13.27;;;6.93;;
50249;SDS011;36133;42.522;27.456;2023-05-18T10:09:39;8.07;;;4.78;;
50249;SDS011;36133;42.522;27.456;2023-05-18T10:12:15;12.95;;;5.50;;
50249;SDS011;36133;42.522;27.456;2023-05-18T10:14:53;9.52;;;5.88;;
50249;SDS011;36133;42.522;27.456;2023-05-18T10:17:21;17.67;;;6.55;;
50249;SDS011;36133;42.522;27.456;2023-05-18T10:19:49;9.35;;;6.07;;
50249;SDS011;36133;42.522;27.456;2023-05-18T10:22:22;10.32;;;5.45;;
50249;SDS011;36133;42.522;27.456;2023-05-18T10:24:51;10.43;;;5.95;;
50249;SDS011;36133;42.522;27.456;2023-05-18T10:27:18;11.65;;;5.60;;
50249;SDS011;36133;42.522;27.456;2023-05-18T10:29:48;9.88;;;6.65;;
50249;SDS011;36133;42.522;27.456;2023-05-18T10:32:16;12.32;;;6.25;;
50249;SDS011;36133;42.522;27.456;2023-05-18T10:34:44;11.32;;;5.68;;
50249;SDS011;36133;42.522;27.456;2023-05-18T10:37:20;11.75;;;6.05;;
50249;SDS011;36133;42.522;27.456;2023-05-18T10:39:47;11.98;;;7.55;;
50249;SDS011;36133;42.522;27.456;2023-05-18T10:42:15;8.85;;;5.13;;
50249;SDS011;36133;42.522;27.456;2023-05-18T10:44:43;14.23;;;6.22;;
50249;SDS011;36133;42.522;27.456;2023-05-18T10:47:11;9.75;;;6.13;;
50249;SDS011;36133;42.522;27.456;2023-05-18T10:49:41;10.88;;;6.20;;
50249;SDS011;36133;42.522;27.456;2023-05-18T10:52:10;7.50;;;5.32;;
50249;SDS011;36133;42.522;27.456;2023-05-18T10:54:37;6.80;;;4.70;;
50249;SDS011;36133;42.522;27.456;2023-05-18T10:57:04;7.90;;;4.55;;
50249;SDS011;36133;42.522;27.456;2023-05-18T10:59:31;6.70;;;4.63;;
50249;SDS011;36133;42.522;27.456;2023-05-18T11:01:57;8.70;;;5.00;;
50249;SDS011;36133;42.522;27.456;2023-05-18T11:04:25;7.93;;;4.78;;
50249;SDS011;36133;42.522;27.456;2023-05-18T11:06:57;9.82;;;4.28;;
50249;SDS011;36133;42.522;27.456;2023-05-18T11:09:23;6.25;;;4.07;;
50249;SDS011;36133;42.522;27.456;2023-05-18T11:11:51;9.55;;;4.45;;
50249;SDS011;36133;42.522;27.456;2023-05-18T11:14:24;9.50;;;4.53;;
50249;SDS011;36133;42.522;27.456;2023-05-18T11:17:18;8.13;;;4.38;;
50249;SDS011;36133;42.522;27.456;2023-05-18T11:22:45;9.95;;;4.03;;
50249;SDS011;36133;42.522;27.456;2023-05-18T11:27:57;8.77;;;4.50;;
50249;SDS011;36133;42.522;27.456;2023-05-18T11:33:07;11.27;;;4.43;;
50249;SDS011;36133;42.522;27.456;2023-05-18T11:38:20;10.05;;;4.75;;
50249;SDS011;36133;42.522;27.456;2023-05-18T11:40:46;8.82;;;4.30;;
50249;SDS011;36133;42.522;27.456;2023-05-18T11:43:20;13.80;;;5.03;;
50249;SDS011;36133;42.522;27.456;2023-05-18T11:45:56;9.73;;;5.30;;
50249;SDS011;36133;42.522;27.456;2023-05-18T11:48:26;11.75;;;4.43;;
50249;SDS011;36133;42.522;27.456;2023-05-18T11:50:55;8.15;;;4.68;;
50249;SDS011;36133;42.522;27.456;2023-05-18T11:53:24;13.35;;;4.82;;
50249;SDS011;36133;42.522;27.456;2023-05-18T11:55:51;15.23;;;4.78;;
50249;SDS011;36133;42.522;27.456;2023-05-18T11:58:24;8.23;;;3.95;;
50249;SDS011;36133;42.522;27.456;2023-05-18T12:00:50;10.07;;;4.38;;
50249;SDS011;36133;42.522;27.456;2023-05-18T12:03:16;10.52;;;5.45;;
50249;SDS011;36133;42.522;27.456;2023-05-18T12:05:43;10.82;;;5.40;;
50249;SDS011;36133;42.522;27.456;2023-05-18T12:08:16;7.00;;;4.40;;
50249;SDS011;36133;42.522;27.456;2023-05-18T12:10:45;7.80;;;4.38;;
50249;SDS011;36133;42.522;27.456;2023-05-18T12:13:16;10.80;;;5.10;;
50249;SDS011;36133;42.522;27.456;2023-05-18T12:15:42;12.93;;;5.30;;
50249;SDS011;36133;42.522;27.456;2023-05-18T12:18:18;10.63;;;4.97;;
50249;SDS011;36133;42.522;27.456;2023-05-18T12:20:44;8.32;;;4.65;;
50249;SDS011;36133;42.522;27.456;2023-05-18T12:23:11;10.63;;;4.95;;
50249;SDS011;36133;42.522;27.456;2023-05-18T12:25:37;13.82;;;5.47;;
50249;SDS011;36133;42.522;27.456;2023-05-18T12:28:03;8.52;;;5.00;;
50249;SDS011;36133;42.522;27.456;2023-05-18T12:30:29;8.15;;;4.40;;
50249;SDS011;36133;42.522;27.456;2023-05-18T12:33:03;7.32;;;3.97;;
50249;SDS011;36133;42.522;27.456;2023-05-18T12:35:30;5.82;;;3.88;;
50249;SDS011;36133;42.522;27.456;2023-05-18T12:37:57;9.95;;;4.35;;
50249;SDS011;36133;42.522;27.456;2023-05-18T12:40:26;7.20;;;4.30;;
50249;SDS011;36133;42.522;27.456;2023-05-18T12:43:01;8.73;;;3.92;;
50249;SDS011;36133;42.522;27.456;2023-05-18T12:45:29;7.90;;;4.55;;
50249;SDS011;36133;42.522;27.456;2023-05-18T12:48:02;9.63;;;4.15;;
50249;SDS011;36133;42.522;27.456;2023-05-18T12:50:31;9.23;;;4.40;;
50249;SDS011;36133;42.522;27.456;2023-05-18T12:52:58;9.27;;;4.47;;
50249;SDS011;36133;42.522;27.456;2023-05-18T12:55:25;6.80;;;3.78;;
50249;SDS011;36133;42.522;27.456;2023-05-18T12:58:01;8.68;;;3.90;;
50249;SDS011;36133;42.522;27.456;2023-05-18T13:00:35;9.07;;;3.97;;
50249;SDS011;36133;42.522;27.456;2023-05-18T13:03:05;9.45;;;4.57;;
50249;SDS011;36133;42.522;27.456;2023-05-18T13:05:32;7.95;;;3.85;;
50249;SDS011;36133;42.522;27.456;2023-05-18T13:07:57;6.43;;;4.30;;
50249;SDS011;36133;42.522;27.456;2023-05-18T13:10:23;8.88;;;3.65;;
50249;SDS011;36133;42.522;27.456;2023-05-18T13:12:49;6.13;;;3.35;;
50249;SDS011;36133;42.522;27.456;2023-05-18T13:15:17;5.30;;;4.20;;
50249;SDS011;36133;42.522;27.456;2023-05-18T13:18:00;10.23;;;4.45;;
50249;SDS011;36133;42.522;27.456;2023-05-18T13:20:31;6.30;;;4.10;;
50249;SDS011;36133;42.522;27.456;2023-05-18T13:23:12;13.18;;;4.55;;
50249;SDS011;36133;42.522;27.456;2023-05-18T13:25:39;10.23;;;4.38;;
50249;SDS011;36133;42.522;27.456;2023-05-18T13:28:05;9.60;;;4.78;;
50249;SDS011;36133;42.522;27.456;2023-05-18T13:30:38;7.90;;;4.57;;
50249;SDS011;36133;42.522;27.456;2023-05-18T13:33:05;9.30;;;4.18;;
50249;SDS011;36133;42.522;27.456;2023-05-18T13:35:34;10.43;;;4.43;;
50249;SDS011;36133;42.522;27.456;2023-05-18T13:38:05;9.25;;;4.53;;
50249;SDS011;36133;42.522;27.456;2023-05-18T13:40:35;11.23;;;4.15;;
50249;SDS011;36133;42.522;27.456;2023-05-18T13:43:01;6.70;;;4.35;;
50249;SDS011;36133;42.522;27.456;2023-05-18T13:45:34;9.50;;;4.63;;
50249;SDS011;36133;42.522;27.456;2023-05-18T13:48:03;9.57;;;3.78;;
50249;SDS011;36133;42.522;27.456;2023-05-18T13:50:31;5.20;;;3.88;;
50249;SDS011;36133;42.522;27.456;2023-05-18T13:52:57;6.63;;;4.90;;
50249;SDS011;36133;42.522;27.456;2023-05-18T13:55:23;8.32;;;4.75;;
50249;SDS011;36133;42.522;27.456;2023-05-18T13:57:48;11.02;;;4.55;;
50249;SDS011;36133;42.522;27.456;2023-05-18T14:00:20;6.90;;;3.97;;
50249;SDS011;36133;42.522;27.456;2023-05-18T14:02:46;7.90;;;3.90;;
50249;SDS011;36133;42.522;27.456;2023-05-18T14:05:12;10.18;;;4.55;;
50249;SDS011;36133;42.522;27.456;2023-05-18T14:07:44;6.10;;;4.38;;
50249;SDS011;36133;42.522;27.456;2023-05-18T14:10:11;6.13;;;4.03;;
50249;SDS011;36133;42.522;27.456;2023-05-18T14:12:37;7.50;;;3.85;;
50249;SDS011;36133;42.522;27.456;2023-05-18T14:15:03;8.73;;;4.00;;
50249;SDS011;36133;42.522;27.456;2023-05-18T14:17:30;9.57;;;4.40;;
50249;SDS011;36133;42.522;27.456;2023-05-18T14:19:57;7.15;;;4.13;;
50249;SDS011;36133;42.522;27.456;2023-05-18T14:22:23;11.32;;;4.22;;
50249;SDS011;36133;42.522;27.456;2023-05-18T14:24:50;5.32;;;3.58;;
50249;SDS011;36133;42.522;27.456;2023-05-18T14:27:21;6.45;;;3.53;;
50249;SDS011;36133;42.522;27.456;2023-05-18T14:29:47;8.18;;;4.20;;
50249;SDS011;36133;42.522;27.456;2023-05-18T14:32:14;6.05;;;3.50;;
50249;SDS011;36133;42.522;27.456;2023-05-18T14:34:40;6.07;;;3.53;;
50249;SDS011;36133;42.522;27.456;2023-05-18T14:37:21;5.40;;;3.53;;
50249;SDS011;36133;42.522;27.456;2023-05-18T14:40:13;7.35;;;3.53;;
50249;SDS011;36133;42.522;27.456;2023-05-18T14:43:22;8.90;;;4.30;;
50249;SDS011;36133;42.522;27.456;2023-05-18T14:45:50;6.20;;;3.85;;
50249;SDS011;36133;42.522;27.456;2023-05-18T14:48:18;9.60;;;3.88;;
50249;SDS011;36133;42.522;27.456;2023-05-18T14:50:52;8.00;;;3.78;;
50249;SDS011;36133;42.522;27.456;2023-05-18T14:53:20;7.18;;;3.55;;
50249;SDS011;36133;42.522;27.456;2023-05-18T14:55:49;6.05;;;3.55;;